Time;durP1;ratioP1;P1;durP2;ratioP2;P2;SDS_P1;SDS_P2;PMS_P1;PMS_P2;Temp;Humidity;BMP_temperature;BMP_pressure;BME280_temperature;BME280_humidity;BME280_pressure;Samples;Min_cycle;Max_cycle;Signal;HPM_P1;HPM_P2
2024/01/18 00:00:54;;;;;;;7.05;3.70;;;;;;;;;;10339586;28;20022;-60
2024/01/18 00:05:55;;;;;;;7.60;3.22;;;;;;;;;;10314089;28;20042;-60
2024/01/18 00:10:56;;;;;;;6.93;3.75;;;;;;;;;;10233511;28;21651;-59
2024/01/18 00:15:56;;;;;;;4.55;3.38;;;;;;;;;;10232755;28;20390;-59
2024/01/18 00:20:57;;;;;;;6.25;3.92;;;;;;;;;;10238733;28;20042;-60
2024/01/18 00:25:57;;;;;;;6.78;3.30;;;;;;;;;;10234924;28;20435;-60
2024/01/18 00:30:58;;;;;;;4.05;3.15;;;;;;;;;;10235430;28;20771;-60
2024/01/18 00:35:59;;;;;;;5.30;3.55;;;;;;;;;;10237622;28;20529;-60
2024/01/18 00:40:59;;;;;;;5.10;3.30;;;;;;;;;;10325846;28;20049;-60
2024/01/18 00:46:04;;;;;;;4.88;3.38;;;;;;;;;;10338086;28;20030;-60
2024/01/18 00:51:04;;;;;;;5.05;3.45;;;;;;;;;;10330505;28;20457;-60
2024/01/18 00:56:09;;;;;;;4.30;3.47;;;;;;;;;;10333540;28;20113;-60
2024/01/18 01:01:10;;;;;;;5.55;3.15;;;;;;;;;;10305687;28;20041;-60
2024/01/18 01:06:12;;;;;;;4.15;3.05;;;;;;;;;;10312067;28;20493;-60
2024/01/18 01:11:13;;;;;;;6.80;3.22;;;;;;;;;;10321534;28;20578;-60
2024/01/18 01:16:14;;;;;;;6.20;2.97;;;;;;;;;;10326067;28;20043;-60
2024/01/18 01:21:14;;;;;;;3.97;3.15;;;;;;;;;;10327607;28;20042;-60
2024/01/18 01:26:15;;;;;;;4.10;2.97;;;;;;;;;;10304948;28;20037;-60
2024/01/18 01:31:16;;;;;;;4.20;3.10;;;;;;;;;;10323000;28;20031;-60
2024/01/18 01:36:17;;;;;;;3.72;2.90;;;;;;;;;;10330033;28;20041;-60
2024/01/18 01:41:17;;;;;;;3.50;3.20;;;;;;;;;;10337412;28;20041;-61
2024/01/18 01:46:18;;;;;;;3.78;2.72;;;;;;;;;;10334349;28;20085;-61
2024/01/18 01:51:18;;;;;;;6.10;3.30;;;;;;;;;;10330037;28;20041;-61
2024/01/18 01:56:20;;;;;;;3.78;2.80;;;;;;;;;;10326886;28;20034;-60
2024/01/18 02:01:21;;;;;;;8.15;2.78;;;;;;;;;;10345789;28;20022;-61
2024/01/18 02:06:22;;;;;;;3.70;2.92;;;;;;;;;;10337716;28;20025;-61
2024/01/18 02:11:22;;;;;;;3.40;3.05;;;;;;;;;;10333527;28;20038;-60
2024/01/18 02:16:24;;;;;;;3.50;2.72;;;;;;;;;;10334453;28;20512;-61
2024/01/18 02:21:26;;;;;;;8.60;3.10;;;;;;;;;;10313924;28;20041;-61
2024/01/18 02:26:26;;;;;;;4.07;2.92;;;;;;;;;;10332950;28;20039;-61
2024/01/18 02:31:27;;;;;;;5.70;3.20;;;;;;;;;;10335486;28;20069;-61
2024/01/18 02:36:27;;;;;;;3.97;2.60;;;;;;;;;;10330795;28;20050;-62
2024/01/18 02:41:29;;;;;;;3.42;2.60;;;;;;;;;;10331896;28;20081;-62
2024/01/18 02:46:33;;;;;;;3.90;3.00;;;;;;;;;;10331347;28;20038;-61
2024/01/18 02:51:34;;;;;;;2.75;2.45;;;;;;;;;;10334822;28;20129;-62
2024/01/18 02:56:34;;;;;;;3.20;2.75;;;;;;;;;;10325824;28;20489;-64
2024/01/18 03:01:35;;;;;;;2.95;2.70;;;;;;;;;;10326435;28;20030;-63
2024/01/18 03:06:35;;;;;;;3.58;2.70;;;;;;;;;;10342106;28;20034;-63
2024/01/18 03:11:36;;;;;;;2.92;2.60;;;;;;;;;;10329886;28;20030;-61
2024/01/18 03:16:42;;;;;;;2.85;2.60;;;;;;;;;;10329292;28;20030;-61
2024/01/18 03:21:43;;;;;;;4.40;2.80;;;;;;;;;;10308685;28;20111;-61
2024/01/18 03:26:43;;;;;;;3.70;2.80;;;;;;;;;;10340921;28;20041;-61
2024/01/18 03:31:44;;;;;;;3.22;2.90;;;;;;;;;;10335107;28;20032;-61
2024/01/18 03:36:44;;;;;;;4.53;2.60;;;;;;;;;;10324048;28;20046;-60
2024/01/18 03:41:45;;;;;;;3.55;2.53;;;;;;;;;;10332838;28;20164;-60
2024/01/18 03:46:45;;;;;;;4.20;2.50;;;;;;;;;;10341618;28;20030;-60
2024/01/18 03:51:46;;;;;;;3.47;2.65;;;;;;;;;;10324221;28;20046;-60
2024/01/18 03:56:47;;;;;;;2.70;2.50;;;;;;;;;;10326815;28;20022;-60
2024/01/18 04:01:47;;;;;;;2.83;2.55;;;;;;;;;;10322635;28;20204;-60
2024/01/18 04:06:49;;;;;;;3.75;2.83;;;;;;;;;;10330834;28;20044;-60
2024/01/18 04:11:49;;;;;;;2.50;2.30;;;;;;;;;;10336200;28;20474;-60
2024/01/18 04:16:50;;;;;;;2.90;2.60;;;;;;;;;;10334312;28;20034;-60
2024/01/18 04:21:51;;;;;;;5.13;2.85;;;;;;;;;;10330834;28;20038;-60
2024/01/18 04:26:51;;;;;;;3.22;2.30;;;;;;;;;;10315121;28;20030;-60
2024/01/18 04:31:52;;;;;;;3.03;2.58;;;;;;;;;;10335500;28;20245;-60
2024/01/18 04:36:52;;;;;;;8.07;2.70;;;;;;;;;;10323109;28;20046;-60
2024/01/18 04:41:53;;;;;;;3.63;2.78;;;;;;;;;;10336417;28;20026;-60
2024/01/18 04:46:53;;;;;;;3.08;2.50;;;;;;;;;;10328399;28;20030;-60
2024/01/18 04:51:54;;;;;;;4.72;2.83;;;;;;;;;;10328549;28;20023;-60
2024/01/18 04:56:55;;;;;;;3.53;2.33;;;;;;;;;;10328659;28;20037;-60
2024/01/18 05:01:56;;;;;;;2.67;2.20;;;;;;;;;;10308769;28;20948;-60
2024/01/18 05:06:57;;;;;;;2.60;2.40;;;;;;;;;;10315262;28;20077;-60
2024/01/18 05:11:57;;;;;;;2.30;2.10;;;;;;;;;;10331510;28;20035;-60
2024/01/18 05:17:10;;;;;;;2.80;2.38;;;;;;;;;;10344546;28;20022;-60
2024/01/18 05:22:10;;;;;;;4.07;2.42;;;;;;;;;;10316492;28;20052;-61
2024/01/18 05:27:11;;;;;;;2.55;2.35;;;;;;;;;;10332154;28;20041;-61
2024/01/18 05:32:12;;;;;;;2.50;2.30;;;;;;;;;;10338336;28;20038;-61
2024/01/18 05:37:12;;;;;;;2.97;2.30;;;;;;;;;;10324514;28;20401;-61
2024/01/18 05:42:13;;;;;;;3.58;2.65;;;;;;;;;;10323255;28;20522;-61
2024/01/18 05:47:14;;;;;;;4.05;2.38;;;;;;;;;;10332031;28;20022;-60
2024/01/18 05:52:15;;;;;;;2.40;2.20;;;;;;;;;;10338420;28;20362;-60
2024/01/18 05:57:16;;;;;;;3.05;2.50;;;;;;;;;;10336043;28;20053;-60
2024/01/18 06:02:16;;;;;;;2.65;2.45;;;;;;;;;;10324020;28;20033;-60
2024/01/18 06:07:17;;;;;;;2.40;2.20;;;;;;;;;;10333455;28;20092;-61
2024/01/18 06:12:18;;;;;;;2.67;2.47;;;;;;;;;;10331390;28;20424;-61
2024/01/18 06:17:19;;;;;;;3.17;2.45;;;;;;;;;;10332047;28;20409;-60
2024/01/18 06:22:21;;;;;;;2.20;2.00;;;;;;;;;;10334980;28;20042;-60
2024/01/18 06:27:22;;;;;;;3.97;2.40;;;;;;;;;;10305572;28;20113;-61
2024/01/18 06:32:25;;;;;;;2.85;2.30;;;;;;;;;;10335857;28;20030;-61
2024/01/18 06:37:25;;;;;;;2.33;2.13;;;;;;;;;;10332124;28;20046;-61
2024/01/18 06:42:26;;;;;;;2.47;2.08;;;;;;;;;;10338727;28;20036;-61
2024/01/18 06:47:27;;;;;;;4.75;2.28;;;;;;;;;;10327925;28;20601;-59
2024/01/18 06:52:27;;;;;;;4.30;2.42;;;;;;;;;;10323709;28;20037;-60
2024/01/18 06:57:28;;;;;;;8.95;2.67;;;;;;;;;;10316189;28;20038;-60
2024/01/18 07:02:29;;;;;;;9.05;2.90;;;;;;;;;;10320338;28;20099;-60
2024/01/18 07:07:30;;;;;;;9.80;3.15;;;;;;;;;;10325537;28;20047;-59
2024/01/18 07:12:32;;;;;;;7.95;3.42;;;;;;;;;;10322824;28;20026;-59
2024/01/18 07:17:33;;;;;;;15.70;3.25;;;;;;;;;;10316514;28;20034;-60
2024/01/18 07:22:34;;;;;;;17.08;3.28;;;;;;;;;;10280258;28;20196;-60
2024/01/18 07:27:34;;;;;;;12.98;2.83;;;;;;;;;;10320045;28;20084;-60
2024/01/18 07:32:35;;;;;;;7.53;3.35;;;;;;;;;;10328944;28;20030;-60
2024/01/18 07:37:36;;;;;;;5.25;2.65;;;;;;;;;;10300993;28;20038;-60
2024/01/18 07:42:36;;;;;;;8.68;3.00;;;;;;;;;;10324132;28;20382;-59
2024/01/18 07:47:37;;;;;;;5.35;2.80;;;;;;;;;;10321995;28;20037;-59
2024/01/18 07:52:38;;;;;;;5.05;2.97;;;;;;;;;;10327713;28;20022;-60
2024/01/18 07:57:39;;;;;;;7.25;3.13;;;;;;;;;;10325904;28;20532;-60
2024/01/18 08:02:39;;;;;;;11.43;2.90;;;;;;;;;;10295506;28;20040;-60
2024/01/18 08:07:40;;;;;;;4.28;2.67;;;;;;;;;;10236496;28;21612;-59
2024/01/18 08:12:43;;;;;;;12.02;3.20;;;;;;;;;;10257396;28;20092;-60
2024/01/18 08:17:44;;;;;;;9.88;2.72;;;;;;;;;;10310430;28;20188;-60
2024/01/18 08:22:44;;;;;;;8.43;3.03;;;;;;;;;;10328638;28;20042;-60
2024/01/18 08:27:45;;;;;;;4.65;2.60;;;;;;;;;;10317631;28;20038;-59
2024/01/18 08:32:46;;;;;;;6.82;2.67;;;;;;;;;;10295438;28;20039;-59
2024/01/18 08:37:48;;;;;;;7.40;2.72;;;;;;;;;;10287207;28;20496;-59
2024/01/18 08:42:49;;;;;;;5.05;3.22;;;;;;;;;;10231385;28;20212;-59
2024/01/18 08:47:50;;;;;;;10.50;2.60;;;;;;;;;;10238582;28;20040;-59
2024/01/18 08:52:51;;;;;;;8.90;3.20;;;;;;;;;;10235219;28;20706;-59
2024/01/18 08:57:52;;;;;;;11.15;3.13;;;;;;;;;;10233935;28;20160;-59
2024/01/18 09:02:52;;;;;;;13.88;3.13;;;;;;;;;;10234620;28;20520;-59
2024/01/18 09:07:53;;;;;;;4.82;2.92;;;;;;;;;;10237315;28;20030;-59
2024/01/18 09:12:55;;;;;;;4.47;3.08;;;;;;;;;;10234697;28;20513;-59
2024/01/18 09:17:56;;;;;;;9.90;3.28;;;;;;;;;;10234047;28;20381;-59
2024/01/18 09:22:57;;;;;;;6.60;3.22;;;;;;;;;;10236155;28;20033;-59
2024/01/18 09:27:57;;;;;;;4.85;2.40;;;;;;;;;;10243770;28;20042;-59
2024/01/18 09:32:58;;;;;;;8.68;2.92;;;;;;;;;;10226072;28;20034;-59
2024/01/18 09:37:59;;;;;;;7.97;3.20;;;;;;;;;;10226873;28;20447;-59
2024/01/18 09:43:07;;;;;;;7.15;3.15;;;;;;;;;;10252826;28;20030;-59
2024/01/18 09:48:08;;;;;;;6.90;2.85;;;;;;;;;;10231736;28;20045;-59
2024/01/18 09:53:08;;;;;;;8.73;3.28;;;;;;;;;;10270065;28;20033;-59
2024/01/18 09:58:12;;;;;;;7.85;3.22;;;;;;;;;;10310577;28;20473;-60
2024/01/18 10:03:13;;;;;;;9.57;3.13;;;;;;;;;;10349888;28;20285;-59
2024/01/18 10:08:14;;;;;;;5.68;3.13;;;;;;;;;;10337885;28;20269;-59
2024/01/18 10:13:15;;;;;;;7.53;2.83;;;;;;;;;;10342565;28;20024;-59
2024/01/18 10:18:15;;;;;;;5.32;2.38;;;;;;;;;;10312033;28;20485;-59
2024/01/18 10:23:16;;;;;;;5.10;2.78;;;;;;;;;;10314802;28;20022;-59
2024/01/18 10:28:16;;;;;;;8.52;2.70;;;;;;;;;;10322450;28;20045;-59
2024/01/18 10:33:17;;;;;;;6.50;2.60;;;;;;;;;;10333108;28;20037;-59
2024/01/18 10:38:29;;;;;;;3.13;2.60;;;;;;;;;;10334035;28;20232;-59
2024/01/18 10:43:30;;;;;;;5.40;2.88;;;;;;;;;;10315414;28;20045;-59
2024/01/18 10:48:33;;;;;;;4.13;2.80;;;;;;;;;;10317416;28;20319;-59
2024/01/18 10:53:33;;;;;;;3.28;2.60;;;;;;;;;;10314471;28;20069;-59
2024/01/18 10:58:34;;;;;;;5.97;2.70;;;;;;;;;;10289799;28;20316;-59
2024/01/18 11:03:35;;;;;;;5.15;2.70;;;;;;;;;;10322370;28;20030;-59
2024/01/18 11:08:37;;;;;;;9.07;3.00;;;;;;;;;;10324899;28;20056;-59
2024/01/18 11:13:38;;;;;;;3.50;2.97;;;;;;;;;;10263061;28;20092;-59
2024/01/18 11:18:39;;;;;;;5.07;2.63;;;;;;;;;;10330111;28;20034;-59
2024/01/18 11:23:41;;;;;;;4.57;2.47;;;;;;;;;;10320197;28;20026;-59
2024/01/18 11:28:41;;;;;;;4.13;2.60;;;;;;;;;;10319898;28;20025;-59
2024/01/18 11:33:44;;;;;;;3.75;2.70;;;;;;;;;;10324239;28;20030;-59
2024/01/18 11:38:45;;;;;;;4.72;2.67;;;;;;;;;;10324683;28;20389;-59
2024/01/18 11:43:54;;;;;;;5.70;2.67;;;;;;;;;;10291834;28;20540;-59
2024/01/18 11:48:54;;;;;;;4.07;2.67;;;;;;;;;;10317473;28;20125;-59
2024/01/18 11:53:59;;;;;;;3.40;2.83;;;;;;;;;;10291957;28;20022;-60
2024/01/18 11:59:00;;;;;;;5.30;2.80;;;;;;;;;;10323110;28;20081;-59
2024/01/18 12:04:00;;;;;;;6.25;2.20;;;;;;;;;;10275195;28;20772;-59
2024/01/18 12:09:01;;;;;;;3.63;2.60;;;;;;;;;;10327479;28;20026;-60
2024/01/18 12:14:04;;;;;;;2.95;2.70;;;;;;;;;;10324928;28;20490;-60
2024/01/18 12:19:05;;;;;;;3.08;2.47;;;;;;;;;;10311297;28;20038;-59
2024/01/18 12:24:06;;;;;;;3.15;2.60;;;;;;;;;;10278567;28;20026;-59
2024/01/18 12:29:07;;;;;;;3.67;2.53;;;;;;;;;;10320492;28;20507;-60
2024/01/18 12:34:08;;;;;;;4.50;2.70;;;;;;;;;;10338623;28;20477;-59
2024/01/18 12:39:10;;;;;;;3.22;2.33;;;;;;;;;;10331121;28;20501;-60
2024/01/18 12:44:12;;;;;;;2.72;2.13;;;;;;;;;;10308353;28;20054;-59
2024/01/18 12:49:15;;;;;;;5.13;2.22;;;;;;;;;;10289172;28;20038;-59
2024/01/18 12:54:17;;;;;;;2.67;2.30;;;;;;;;;;10323951;28;20042;-60
2024/01/18 12:59:18;;;;;;;3.25;2.17;;;;;;;;;;10259443;28;20044;-60
2024/01/18 13:04:25;;;;;;;3.50;2.35;;;;;;;;;;10316897;28;20030;-59
2024/01/18 13:09:27;;;;;;;3.38;2.30;;;;;;;;;;10329786;28;20534;-59
2024/01/18 13:14:29;;;;;;;4.35;2.22;;;;;;;;;;10276521;28;20030;-60
2024/01/18 13:19:29;;;;;;;4.18;2.30;;;;;;;;;;10310986;28;20042;-59
2024/01/18 13:24:30;;;;;;;3.13;2.22;;;;;;;;;;10314450;28;20049;-59
2024/01/18 13:29:34;;;;;;;2.17;1.98;;;;;;;;;;10296836;28;20034;-59
2024/01/18 13:34:35;;;;;;;2.10;1.90;;;;;;;;;;10355648;28;20026;-59
2024/01/18 13:39:36;;;;;;;2.45;2.00;;;;;;;;;;10341979;28;20437;-59
2024/01/18 13:44:37;;;;;;;3.35;2.60;;;;;;;;;;10306824;28;20524;-59
2024/01/18 13:49:39;;;;;;;5.38;2.50;;;;;;;;;;10330503;28;20026;-64
2024/01/18 13:54:39;;;;;;;3.70;2.22;;;;;;;;;;10305373;28;20040;-60
2024/01/18 13:59:40;;;;;;;2.90;2.60;;;;;;;;;;10343292;28;20030;-60
2024/01/18 14:04:40;;;;;;;2.95;2.10;;;;;;;;;;10340178;28;20095;-60
2024/01/18 14:09:41;;;;;;;3.75;2.38;;;;;;;;;;10330916;28;20095;-61
2024/01/18 14:14:42;;;;;;;3.45;2.38;;;;;;;;;;10331047;28;20041;-60
2024/01/18 14:19:42;;;;;;;2.78;2.40;;;;;;;;;;10332857;28;20039;-60
2024/01/18 14:24:44;;;;;;;3.83;2.80;;;;;;;;;;10328167;28;20030;-60
2024/01/18 14:29:44;;;;;;;4.20;2.78;;;;;;;;;;10338427;28;20030;-60
2024/01/18 14:34:45;;;;;;;2.65;2.45;;;;;;;;;;10337284;28;20026;-60
2024/01/18 14:39:45;;;;;;;4.45;3.47;;;;;;;;;;10328441;28;20058;-60
2024/01/18 14:44:48;;;;;;;3.78;2.78;;;;;;;;;;10328345;28;20073;-60
2024/01/18 14:49:56;;;;;;;3.22;2.70;;;;;;;;;;10327520;28;20076;-60
2024/01/18 14:54:57;;;;;;;3.30;3.00;;;;;;;;;;10305292;28;20033;-60
2024/01/18 14:59:57;;;;;;;7.68;3.08;;;;;;;;;;10348936;28;20030;-60
2024/01/18 15:04:58;;;;;;;4.20;2.70;;;;;;;;;;10341872;28;20045;-60
2024/01/18 15:09:58;;;;;;;4.10;2.83;;;;;;;;;;10350139;28;20120;-60
2024/01/18 15:14:59;;;;;;;3.72;2.75;;;;;;;;;;10335521;28;20038;-60
2024/01/18 15:19:59;;;;;;;6.03;3.22;;;;;;;;;;10328839;28;20045;-61
2024/01/18 15:25:00;;;;;;;10.27;3.13;;;;;;;;;;10326047;28;20045;-62
2024/01/18 15:30:04;;;;;;;25.55;4.32;;;;;;;;;;10326329;28;20037;-61
2024/01/18 15:35:05;;;;;;;28.55;4.40;;;;;;;;;;10334473;28;20032;-60
2024/01/18 15:40:06;;;;;;;17.05;3.92;;;;;;;;;;10329321;28;20050;-60
2024/01/18 15:45:09;;;;;;;19.00;3.92;;;;;;;;;;10332570;28;20030;-60
2024/01/18 15:50:10;;;;;;;15.07;3.47;;;;;;;;;;10323983;28;20359;-61
2024/01/18 15:55:11;;;;;;;13.35;3.25;;;;;;;;;;10316851;28;20026;-61
2024/01/18 16:00:12;;;;;;;21.73;3.97;;;;;;;;;;10229191;28;20050;-61
2024/01/18 16:05:14;;;;;;;26.70;3.30;;;;;;;;;;10260858;28;20462;-59
2024/01/18 16:10:14;;;;;;;8.35;3.35;;;;;;;;;;10293982;28;20485;-60
2024/01/18 16:15:15;;;;;;;10.75;3.10;;;;;;;;;;10331235;28;20238;-60
2024/01/18 16:20:15;;;;;;;9.43;3.28;;;;;;;;;;10312410;28;20038;-60
2024/01/18 16:25:16;;;;;;;10.05;2.70;;;;;;;;;;10326103;28;20026;-60
2024/01/18 16:30:17;;;;;;;6.95;2.88;;;;;;;;;;10324658;28;20053;-60
2024/01/18 16:35:18;;;;;;;7.95;2.85;;;;;;;;;;10324753;28;20030;-61
2024/01/18 16:40:18;;;;;;;9.20;2.88;;;;;;;;;;10329325;28;20085;-60
2024/01/18 16:45:19;;;;;;;3.55;2.72;;;;;;;;;;10329361;28;20560;-60
2024/01/18 16:50:20;;;;;;;11.40;3.00;;;;;;;;;;10263000;28;22256;-60
2024/01/18 16:55:20;;;;;;;6.30;3.00;;;;;;;;;;10211469;28;20499;-60
2024/01/18 17:00:24;;;;;;;7.50;3.10;;;;;;;;;;10261243;28;20038;-60
2024/01/18 17:05:25;;;;;;;6.93;3.22;;;;;;;;;;10275883;28;20034;-60
2024/01/18 17:10:25;;;;;;;4.55;3.00;;;;;;;;;;10326945;28;20029;-60
2024/01/18 17:15:26;;;;;;;4.60;3.05;;;;;;;;;;10283308;28;20031;-60
2024/01/18 17:20:26;;;;;;;5.50;3.22;;;;;;;;;;10325938;28;20022;-60
2024/01/18 17:25:27;;;;;;;8.60;3.55;;;;;;;;;;10271864;28;20030;-60
2024/01/18 17:30:28;;;;;;;4.78;3.53;;;;;;;;;;10309393;28;20359;-60
2024/01/18 17:35:29;;;;;;;6.80;3.28;;;;;;;;;;10295451;28;21053;-61
2024/01/18 17:40:29;;;;;;;3.42;2.92;;;;;;;;;;10316427;28;20084;-61
2024/01/18 17:45:31;;;;;;;3.47;3.13;;;;;;;;;;10311862;28;20033;-60
2024/01/18 17:50:32;;;;;;;3.83;3.08;;;;;;;;;;10326639;28;20041;-60
2024/01/18 17:55:33;;;;;;;4.55;3.25;;;;;;;;;;10328113;28;20025;-63
2024/01/18 18:00:36;;;;;;;7.05;3.20;;;;;;;;;;10285659;28;20391;-60
2024/01/18 18:05:36;;;;;;;5.82;3.00;;;;;;;;;;10327902;28;20034;-60
2024/01/18 18:10:37;;;;;;;5.15;3.05;;;;;;;;;;10290797;28;20481;-60
2024/01/18 18:15:38;;;;;;;5.03;3.13;;;;;;;;;;10262233;28;20022;-61
2024/01/18 18:20:38;;;;;;;3.40;2.88;;;;;;;;;;10318281;28;20445;-61
2024/01/18 18:25:39;;;;;;;4.82;3.20;;;;;;;;;;10304309;28;20038;-61
2024/01/18 18:30:40;;;;;;;8.25;3.17;;;;;;;;;;10306559;28;20378;-60
2024/01/18 18:35:41;;;;;;;5.57;3.25;;;;;;;;;;10272468;28;20534;-60
2024/01/18 18:40:41;;;;;;;4.63;3.17;;;;;;;;;;10237656;28;20098;-61
2024/01/18 18:45:43;;;;;;;5.70;3.22;;;;;;;;;;10238278;28;20045;-61
2024/01/18 18:50:44;;;;;;;9.35;3.45;;;;;;;;;;10244888;28;20458;-61
2024/01/18 18:55:44;;;;;;;6.20;3.40;;;;;;;;;;10323384;28;20083;-61
2024/01/18 19:00:48;;;;;;;6.55;3.75;;;;;;;;;;10326617;28;20026;-61
2024/01/18 19:05:53;;;;;;;9.02;3.95;;;;;;;;;;10323813;28;20035;-61
2024/01/18 19:10:54;;;;;;;7.50;3.97;;;;;;;;;;10312863;28;20030;-61
2024/01/18 19:15:56;;;;;;;5.47;3.65;;;;;;;;;;10325481;28;20038;-61
2024/01/18 19:20:56;;;;;;;9.85;3.80;;;;;;;;;;10325929;28;20041;-61
2024/01/18 19:25:57;;;;;;;8.30;3.33;;;;;;;;;;10321615;28;20037;-60
2024/01/18 19:30:58;;;;;;;4.78;3.55;;;;;;;;;;10322967;28;20033;-61
2024/01/18 19:35:59;;;;;;;5.93;3.10;;;;;;;;;;10326660;28;20069;-61
2024/01/18 19:40:59;;;;;;;6.25;3.70;;;;;;;;;;10323812;28;20038;-61
2024/01/18 19:46:01;;;;;;;4.68;3.40;;;;;;;;;;10324756;28;20037;-61
2024/01/18 19:51:02;;;;;;;8.90;4.00;;;;;;;;;;10313445;28;20030;-61
2024/01/18 19:56:03;;;;;;;6.45;3.83;;;;;;;;;;10325883;28;20061;-61
2024/01/18 20:01:04;;;;;;;7.07;4.28;;;;;;;;;;10321216;28;20070;-61
2024/01/18 20:06:05;;;;;;;9.32;4.90;;;;;;;;;;10320912;28;20034;-61
2024/01/18 20:11:06;;;;;;;19.08;4.75;;;;;;;;;;10322986;28;20030;-61
2024/01/18 20:16:06;;;;;;;13.10;4.63;;;;;;;;;;10306820;28;20027;-61
2024/01/18 20:21:07;;;;;;;8.65;4.50;;;;;;;;;;10321727;28;20461;-61
2024/01/18 20:26:11;;;;;;;8.18;4.32;;;;;;;;;;10320852;28;20551;-61
2024/01/18 20:31:14;;;;;;;10.75;4.50;;;;;;;;;;10320523;28;20437;-61
2024/01/18 20:36:15;;;;;;;8.32;4.22;;;;;;;;;;10324209;28;20636;-60
2024/01/18 20:41:15;;;;;;;9.57;4.78;;;;;;;;;;10324431;28;20490;-61
2024/01/18 20:46:16;;;;;;;6.20;4.03;;;;;;;;;;10315832;28;20033;-61
2024/01/18 20:51:16;;;;;;;9.98;4.13;;;;;;;;;;10325109;28;20038;-62
2024/01/18 20:56:20;;;;;;;9.43;4.28;;;;;;;;;;10334174;28;20446;-61
2024/01/18 21:01:21;;;;;;;7.55;4.10;;;;;;;;;;10324533;28;20035;-61
2024/01/18 21:06:21;;;;;;;6.45;4.53;;;;;;;;;;10319887;28;20026;-61
2024/01/18 21:11:22;;;;;;;7.18;4.03;;;;;;;;;;10309848;28;20041;-60
2024/01/18 21:16:23;;;;;;;24.20;5.47;;;;;;;;;;10321897;28;20022;-61
2024/01/18 21:21:23;;;;;;;26.65;5.70;;;;;;;;;;10319572;28;20445;-61
2024/01/18 21:26:24;;;;;;;10.02;4.80;;;;;;;;;;10319070;28;20038;-61
2024/01/18 21:31:25;;;;;;;15.50;4.90;;;;;;;;;;10323529;28;20038;-61
2024/01/18 21:36:25;;;;;;;21.40;5.00;;;;;;;;;;10322500;28;20081;-61
2024/01/18 21:41:26;;;;;;;9.65;4.57;;;;;;;;;;10323870;28;20281;-61
2024/01/18 21:46:26;;;;;;;8.10;4.60;;;;;;;;;;10321491;28;20030;-61
2024/01/18 21:51:27;;;;;;;10.98;5.13;;;;;;;;;;10322734;28;20031;-61
2024/01/18 21:56:27;;;;;;;10.32;4.65;;;;;;;;;;10327784;28;20026;-61
2024/01/18 22:01:28;;;;;;;8.80;4.30;;;;;;;;;;10324086;28;20363;-61
2024/01/18 22:06:29;;;;;;;6.88;4.38;;;;;;;;;;10328995;28;20529;-61
2024/01/18 22:11:29;;;;;;;9.10;4.57;;;;;;;;;;10329151;28;20209;-61
2024/01/18 22:16:32;;;;;;;5.05;3.78;;;;;;;;;;10327616;28;20031;-61
2024/01/18 22:21:33;;;;;;;8.60;4.20;;;;;;;;;;10326886;28;20030;-61
2024/01/18 22:26:33;;;;;;;7.85;4.38;;;;;;;;;;10320442;28;20041;-61
2024/01/18 22:31:34;;;;;;;9.35;4.43;;;;;;;;;;10326430;28;20375;-61
2024/01/18 22:36:35;;;;;;;8.15;4.90;;;;;;;;;;10329822;28;20474;-61
2024/01/18 22:41:35;;;;;;;7.80;6.07;;;;;;;;;;10326936;28;20253;-60
2024/01/18 22:46:37;;;;;;;10.10;6.50;;;;;;;;;;10336301;28;20022;-61
2024/01/18 22:51:39;;;;;;;10.43;5.75;;;;;;;;;;10331236;28;20053;-61
2024/01/18 22:56:41;;;;;;;11.73;5.78;;;;;;;;;;10350136;28;20474;-60
2024/01/18 23:01:41;;;;;;;9.32;5.88;;;;;;;;;;10320965;28;20042;-61
2024/01/18 23:06:42;;;;;;;10.05;5.72;;;;;;;;;;10349800;28;20029;-61
2024/01/18 23:11:43;;;;;;;18.70;5.40;;;;;;;;;;10349822;28;20033;-59
2024/01/18 23:16:43;;;;;;;12.57;5.65;;;;;;;;;;10332366;28;20045;-59
2024/01/18 23:21:44;;;;;;;17.75;5.50;;;;;;;;;;10329767;28;20030;-59
2024/01/18 23:26:45;;;;;;;9.98;5.57;;;;;;;;;;10308528;28;20022;-59
2024/01/18 23:31:46;;;;;;;9.05;5.25;;;;;;;;;;10333866;28;20373;-60
2024/01/18 23:36:47;;;;;;;7.25;4.80;;;;;;;;;;10322037;28;20042;-59
2024/01/18 23:41:47;;;;;;;6.20;4.97;;;;;;;;;;10335954;28;20489;-59
2024/01/18 23:46:48;;;;;;;7.47;5.05;;;;;;;;;;10341734;28;20034;-59
2024/01/18 23:51:48;;;;;;;10.55;4.97;;;;;;;;;;10350139;28;20025;-59
2024/01/18 23:56:49;;;;;;;6.32;5.18;;;;;;;;;;10345939;28;20080;-59
